Time;durP1;ratioP1;P1;durP2;ratioP2;P2;SDS_P1;SDS_P2;PMS_P1;PMS_P2;Temp;Humidity;BMP_temperature;BMP_pressure;BME280_temperature;BME280_humidity;BME280_pressure;Samples;Min_cycle;Max_cycle;Signal;HPM_P1;HPM_P2
2022/05/12 00:00:29;;;;;;;4.67;2.03;;;19.20;89.00;;;;;;1993985;28;20410;-74
2022/05/12 00:01:29;;;;;;;4.10;1.35;;;19.20;88.90;;;;;;1994118;28;20170;-74
2022/05/12 00:02:29;;;;;;;3.20;1.87;;;19.20;88.90;;;;;;1995428;28;20178;-74
2022/05/12 00:03:28;;;;;;;2.50;1.60;;;19.20;88.90;;;;;;1995618;28;20525;-74
2022/05/12 00:04:27;;;;;;;2.17;1.20;;;19.20;88.90;;;;;;1996071;28;20593;-75
2022/05/12 00:05:25;;;;;;;2.70;1.60;;;19.20;88.70;;;;;;1997668;28;20159;-75
2022/05/12 00:06:25;;;;;;;2.90;1.63;;;19.20;88.90;;;;;;1997241;28;20190;-74
2022/05/12 00:07:23;;;;;;;4.67;2.17;;;19.20;88.70;;;;;;1994102;28;20190;-75
2022/05/12 00:08:22;;;;;;;1.93;1.70;;;19.20;88.70;;;;;;1984969;29;20415;-75
2022/05/12 00:09:21;;;;;;;4.30;1.97;;;19.20;88.70;;;;;;1997116;28;20233;-74
2022/05/12 00:10:23;;;;;;;1.90;1.30;;;19.20;88.60;;;;;;1997673;28;20258;-74
2022/05/12 00:11:23;;;;;;;6.68;2.25;;;19.30;88.90;;;;;;1997740;28;20418;-75
2022/05/12 00:12:23;;;;;;;5.50;1.80;;;19.20;88.80;;;;;;1997667;28;20178;-75
2022/05/12 00:13:22;;;;;;;3.13;2.07;;;19.20;88.60;;;;;;1997446;28;20430;-74
2022/05/12 00:14:21;;;;;;;5.20;1.70;;;19.20;88.60;;;;;;1998290;28;20473;-74
2022/05/12 00:15:24;;;;;;;2.17;1.53;;;19.20;88.70;;;;;;1997408;28;20186;-75
2022/05/12 00:16:24;;;;;;;3.20;1.70;;;19.20;88.70;;;;;;1996899;28;20503;-75
2022/05/12 00:17:23;;;;;;;7.63;2.10;;;19.20;88.70;;;;;;1997126;28;20402;-75
2022/05/12 00:18:21;;;;;;;9.03;2.70;;;19.20;88.60;;;;;;1996287;28;20481;-74
2022/05/12 00:19:21;;;;;;;7.83;1.80;;;19.20;88.70;;;;;;2004108;28;20193;-74
2022/05/12 00:20:22;;;;;;;6.27;2.30;;;19.20;88.70;;;;;;2003271;28;20181;-75
2022/05/12 00:21:22;;;;;;;3.90;2.28;;;19.20;88.80;;;;;;1996302;28;20444;-74
2022/05/12 00:22:21;;;;;;;6.60;2.43;;;19.30;88.80;;;;;;1994966;28;20265;-74
2022/05/12 00:23:26;;;;;;;9.80;1.90;;;19.20;89.50;;;;;;1992523;28;20421;-74
2022/05/12 00:24:25;;;;;;;2.50;1.38;;;19.20;88.80;;;;;;1989712;28;20242;-74
2022/05/12 00:25:24;;;;;;;3.35;1.75;;;19.20;88.90;;;;;;1990509;28;20197;-73
2022/05/12 00:26:29;;;;;;;3.40;1.97;;;19.20;89.30;;;;;;1989708;28;20641;-74
2022/05/12 00:27:27;;;;;;;7.40;2.00;;;19.20;89.20;;;;;;1990910;28;20186;-74
2022/05/12 00:28:26;;;;;;;3.50;2.37;;;19.20;89.20;;;;;;1992602;28;20600;-73
2022/05/12 00:29:25;;;;;;;5.03;1.40;;;19.20;89.10;;;;;;1996215;28;20198;-74
2022/05/12 00:30:25;;;;;;;4.60;2.20;;;19.20;89.10;;;;;;1994771;28;20171;-74
2022/05/12 00:31:24;;;;;;;2.83;1.70;;;19.20;89.20;;;;;;1995454;28;20413;-74
2022/05/12 00:32:24;;;;;;;3.57;1.50;;;19.20;89.20;;;;;;1996341;28;20389;-73
2022/05/12 00:33:26;;;;;;;2.73;1.40;;;19.20;89.20;;;;;;1997657;28;20425;-75
2022/05/12 00:34:26;;;;;;;6.27;3.10;;;19.20;89.20;;;;;;1997287;28;20435;-74
2022/05/12 00:35:25;;;;;;;3.13;2.23;;;19.20;89.30;;;;;;1996968;28;20421;-75
2022/05/12 00:36:24;;;;;;;3.43;1.97;;;19.20;89.20;;;;;;1997210;28;21044;-73
2022/05/12 00:37:22;;;;;;;7.80;2.37;;;19.20;89.40;;;;;;1990053;28;20660;-74
2022/05/12 00:38:21;;;;;;;4.67;2.50;;;19.20;89.50;;;;;;1989710;28;20281;-75
2022/05/12 00:39:20;;;;;;;2.50;1.30;;;19.20;89.50;;;;;;1989767;28;20171;-74
2022/05/12 00:40:19;;;;;;;3.13;2.03;;;19.20;89.70;;;;;;1989547;28;20182;-74
2022/05/12 00:41:18;;;;;;;3.10;1.70;;;19.20;89.70;;;;;;1989245;28;20173;-74
2022/05/12 00:42:16;;;;;;;4.77;2.10;;;19.20;89.70;;;;;;1989400;28;20493;-74
2022/05/12 00:43:47;;;;;;;4.80;1.60;;;19.30;89.90;;;;;;1989566;28;20438;-74
2022/05/12 00:44:45;;;;;;;3.40;1.90;;;19.20;89.70;;;;;;1989580;28;20181;-75
2022/05/12 00:45:44;;;;;;;2.77;1.57;;;19.20;89.70;;;;;;1993682;28;20956;-74
2022/05/12 00:46:44;;;;;;;4.07;1.70;;;19.20;89.90;;;;;;1980965;29;20235;-74
2022/05/12 00:47:43;;;;;;;4.10;2.17;;;19.20;89.70;;;;;;1981039;29;20179;-74
2022/05/12 00:48:42;;;;;;;4.57;1.97;;;19.20;89.90;;;;;;1989077;28;20417;-74
2022/05/12 00:49:42;;;;;;;5.93;2.25;;;19.20;89.70;;;;;;1989467;28;20188;-74
2022/05/12 00:50:44;;;;;;;4.22;1.73;;;19.20;89.70;;;;;;1989570;28;20682;-74
2022/05/12 00:51:47;;;;;;;5.50;2.07;;;19.20;89.70;;;;;;1996248;28;20348;-74
2022/05/12 00:52:45;;;;;;;13.63;2.40;;;19.20;89.70;;;;;;1996439;28;20467;-74
2022/05/12 00:53:46;;;;;;;5.63;1.50;;;19.20;89.80;;;;;;1989251;28;20422;-74
2022/05/12 00:55:05;;;;;;;6.63;1.70;;;19.20;89.70;;;;;;1989385;28;20421;-74
2022/05/12 00:56:08;;;;;;;3.58;1.80;;;19.20;89.90;;;;;;1988589;28;20947;-74
2022/05/12 00:57:10;;;;;;;4.27;1.60;;;19.20;89.80;;;;;;1988622;28;20265;-73
2022/05/12 00:58:13;;;;;;;4.90;1.90;;;19.30;89.90;;;;;;1996506;28;20945;-74
2022/05/12 00:59:20;;;;;;;3.40;1.90;;;19.10;89.80;;;;;;1988754;28;20931;-74
2022/05/12 01:00:21;;;;;;;3.90;1.47;;;19.20;90.00;;;;;;1988635;28;20902;-74
2022/05/12 01:01:21;;;;;;;3.40;1.67;;;19.20;90.00;;;;;;1988686;28;21003;-74
2022/05/12 01:02:21;;;;;;;3.23;1.83;;;19.20;90.00;;;;;;1989313;28;20766;-74
2022/05/12 01:03:23;;;;;;;3.80;1.63;;;19.20;90.00;;;;;;1989486;28;20815;-74
2022/05/12 01:04:25;;;;;;;7.07;2.00;;;19.20;89.90;;;;;;1996276;28;20413;-74
2022/05/12 01:05:25;;;;;;;6.13;2.60;;;19.20;90.00;;;;;;1988902;28;20472;-74
2022/05/12 01:06:24;;;;;;;8.83;2.00;;;19.20;90.00;;;;;;1988677;28;20402;-74
2022/05/12 01:07:23;;;;;;;9.37;1.90;;;19.20;89.90;;;;;;1996514;28;20408;-74
2022/05/12 01:08:22;;;;;;;4.63;1.80;;;19.20;90.00;;;;;;1996393;28;20745;-74
2022/05/12 01:09:22;;;;;;;2.87;1.40;;;19.20;90.00;;;;;;1989634;28;20212;-75
2022/05/12 01:10:23;;;;;;;3.07;1.90;;;19.20;90.00;;;;;;1988946;28;20403;-73
2022/05/12 01:11:23;;;;;;;3.53;1.70;;;19.20;90.00;;;;;;1989250;28;20413;-73
2022/05/12 01:12:22;;;;;;;2.50;1.60;;;19.20;90.00;;;;;;1989440;28;20413;-73
2022/05/12 01:13:23;;;;;;;2.60;2.03;;;19.20;90.00;;;;;;1989180;28;20414;-73
2022/05/12 01:14:22;;;;;;;6.20;1.87;;;19.20;89.90;;;;;;1989072;28;20840;-76
2022/05/12 01:15:24;;;;;;;3.20;1.43;;;19.20;90.00;;;;;;1996204;28;20405;-73
2022/05/12 01:17:06;;;;;;;5.60;1.47;;;19.20;90.10;;;;;;1996430;28;20218;-75
2022/05/12 01:18:17;;;;;;;3.10;1.67;;;19.20;90.10;;;;;;1986115;28;20465;-73
2022/05/12 01:19:23;;;;;;;4.77;1.80;;;19.20;90.10;;;;;;1989343;28;20374;-73
2022/05/12 01:20:21;;;;;;;4.10;1.50;;;19.20;90.10;;;;;;1989343;28;20390;-73
2022/05/12 01:21:20;;;;;;;5.27;1.90;;;19.20;90.10;;;;;;1989222;28;20489;-74
2022/05/12 01:22:50;;;;;;;4.20;2.17;;;19.20;90.10;;;;;;1989371;28;20217;-73
2022/05/12 01:23:51;;;;;;;2.90;1.88;;;19.20;90.20;;;;;;1984751;28;20610;-74
2022/05/12 01:24:49;;;;;;;4.13;1.90;;;19.20;90.20;;;;;;1988703;28;20174;-73
2022/05/12 01:25:48;;;;;;;3.83;1.50;;;19.10;90.10;;;;;;1989266;28;20471;-73
2022/05/12 01:26:48;;;;;;;4.13;1.70;;;19.20;90.20;;;;;;1989231;28;20230;-75
2022/05/12 01:27:47;;;;;;;1.87;1.30;;;19.20;90.20;;;;;;1989436;28;20418;-73
2022/05/12 01:28:45;;;;;;;3.13;1.90;;;19.20;90.20;;;;;;1988043;28;20940;-73
2022/05/12 01:29:52;;;;;;;2.63;1.60;;;19.20;90.20;;;;;;1988669;28;20780;-73
2022/05/12 01:30:51;;;;;;;5.60;1.60;;;19.20;90.20;;;;;;1996302;28;20213;-74
2022/05/12 01:31:49;;;;;;;3.40;1.67;;;19.20;90.20;;;;;;1996314;28;20419;-74
2022/05/12 01:32:48;;;;;;;2.27;1.43;;;19.20;90.20;;;;;;1989240;28;20186;-74
2022/05/12 01:33:47;;;;;;;6.40;1.67;;;19.20;90.20;;;;;;1988660;28;20183;-73
2022/05/12 01:34:46;;;;;;;6.50;2.40;;;19.20;90.20;;;;;;1988306;28;20182;-74
2022/05/12 01:35:46;;;;;;;7.22;1.67;;;19.20;90.20;;;;;;1989062;28;20175;-74
2022/05/12 01:36:47;;;;;;;5.17;2.03;;;19.20;90.20;;;;;;1989025;28;20187;-73
2022/05/12 01:37:47;;;;;;;3.13;1.40;;;19.20;90.30;;;;;;1989050;28;20430;-74
2022/05/12 01:38:47;;;;;;;3.03;1.60;;;19.20;90.40;;;;;;1989217;28;20408;-74
2022/05/12 01:39:46;;;;;;;2.78;1.75;;;19.20;90.40;;;;;;1989158;28;20406;-73
2022/05/12 01:40:44;;;;;;;5.07;2.20;;;19.20;90.50;;;;;;1989081;28;20174;-74
2022/05/12 01:41:43;;;;;;;6.33;1.77;;;19.20;90.40;;;;;;1989255;28;20480;-73
2022/05/12 01:42:42;;;;;;;4.03;2.17;;;19.20;90.50;;;;;;1989186;28;20670;-74
2022/05/12 01:43:41;;;;;;;7.47;1.57;;;19.10;90.40;;;;;;1989146;28;20206;-73
2022/05/12 01:44:41;;;;;;;1.77;1.40;;;19.20;90.50;;;;;;1989246;28;20449;-73
2022/05/12 01:45:40;;;;;;;7.10;1.60;;;19.20;90.60;;;;;;1989201;28;20657;-74
2022/05/12 01:46:38;;;;;;;2.07;1.33;;;19.20;90.60;;;;;;1988461;28;20529;-74
2022/05/12 01:47:37;;;;;;;13.53;2.77;;;19.20;90.60;;;;;;1988562;28;20425;-73
2022/05/12 01:48:37;;;;;;;5.07;1.57;;;19.20;90.60;;;;;;1989213;28;20174;-74
2022/05/12 01:49:35;;;;;;;4.30;1.60;;;19.20;90.60;;;;;;1988558;28;20429;-73
2022/05/12 01:50:34;;;;;;;6.03;2.07;;;19.20;90.50;;;;;;1988403;28;20418;-73
2022/05/12 01:51:35;;;;;;;5.37;1.63;;;19.20;90.50;;;;;;1989067;28;20178;-73
2022/05/12 01:52:36;;;;;;;2.97;1.90;;;19.20;90.60;;;;;;1989029;28;20413;-75
2022/05/12 01:53:35;;;;;;;9.67;2.33;;;19.20;90.90;;;;;;1989033;28;20426;-75
2022/05/12 01:54:33;;;;;;;4.20;1.70;;;19.20;90.70;;;;;;1989041;28;20905;-75
2022/05/12 01:55:32;;;;;;;4.13;1.20;;;19.20;90.60;;;;;;1988265;28;20456;-75
2022/05/12 01:56:30;;;;;;;2.00;1.80;;;19.20;90.60;;;;;;1988550;28;20206;-75
2022/05/12 01:57:29;;;;;;;4.40;1.87;;;19.20;90.60;;;;;;1987618;28;20179;-74
2022/05/12 01:58:28;;;;;;;8.60;1.40;;;19.20;90.70;;;;;;1988347;28;20171;-74
2022/05/12 01:59:27;;;;;;;11.50;1.97;;;19.10;90.70;;;;;;1989053;28;20497;-74
2022/05/12 02:00:29;;;;;;;5.60;2.03;;;19.20;90.70;;;;;;1988708;28;20281;-73
2022/05/12 02:01:28;;;;;;;2.13;1.37;;;19.10;90.80;;;;;;1988225;28;20406;-76
2022/05/12 02:02:28;;;;;;;3.47;1.23;;;19.20;90.60;;;;;;1989231;28;20417;-75
2022/05/12 02:03:26;;;;;;;9.03;1.80;;;19.10;90.70;;;;;;1989139;28;20217;-74
2022/05/12 02:04:25;;;;;;;6.10;2.37;;;19.20;90.80;;;;;;1989448;28;20813;-74
2022/05/12 02:05:23;;;;;;;3.57;1.40;;;19.20;90.80;;;;;;1990415;28;20620;-74
2022/05/12 02:06:24;;;;;;;7.50;1.90;;;19.20;90.80;;;;;;1990387;28;20259;-76
2022/05/12 02:07:23;;;;;;;5.47;1.70;;;19.10;91.00;;;;;;1990415;28;20521;-74
2022/05/12 02:08:21;;;;;;;5.23;2.00;;;19.10;90.80;;;;;;1990465;28;20185;-76
2022/05/12 02:09:20;;;;;;;5.73;1.97;;;19.10;90.90;;;;;;1990456;28;20174;-74
2022/05/12 02:10:22;;;;;;;4.30;1.90;;;19.10;91.00;;;;;;1996991;28;20212;-73
2022/05/12 02:11:22;;;;;;;5.53;1.80;;;19.10;91.20;;;;;;1997744;28;20256;-74
2022/05/12 02:12:21;;;;;;;2.27;1.50;;;19.10;91.10;;;;;;1990342;28;20405;-74
2022/05/12 02:13:25;;;;;;;4.07;1.40;;;19.20;91.00;;;;;;1990246;28;20406;-74
2022/05/12 02:14:24;;;;;;;4.30;1.50;;;19.10;90.90;;;;;;1990463;28;20234;-73
2022/05/12 02:15:25;;;;;;;7.03;1.83;;;19.10;91.00;;;;;;1990631;28;20744;-74
2022/05/12 02:16:25;;;;;;;4.75;2.08;;;19.20;91.20;;;;;;1997508;28;20201;-75
2022/05/12 02:17:24;;;;;;;4.97;1.70;;;19.10;91.10;;;;;;1997522;28;20173;-74
2022/05/12 02:18:23;;;;;;;2.13;1.10;;;19.10;91.20;;;;;;1990893;28;20626;-74
2022/05/12 02:19:22;;;;;;;4.63;1.67;;;19.10;91.20;;;;;;1990070;28;20171;-74
2022/05/12 02:20:21;;;;;;;2.90;1.43;;;19.20;91.20;;;;;;1989804;28;20170;-74
2022/05/12 02:21:21;;;;;;;6.00;1.57;;;19.10;91.10;;;;;;1989529;28;20174;-76
2022/05/12 02:22:19;;;;;;;14.23;1.67;;;19.10;91.10;;;;;;1989516;28;20420;-74
2022/05/12 02:23:18;;;;;;;2.90;1.27;;;19.10;91.10;;;;;;1997017;28;20420;-75
2022/05/12 02:24:17;;;;;;;6.33;2.13;;;19.20;91.40;;;;;;1990696;28;20174;-74
2022/05/12 02:25:17;;;;;;;4.67;1.47;;;19.20;91.50;;;;;;1990219;28;20406;-74
2022/05/12 02:26:15;;;;;;;6.05;1.80;;;19.20;91.60;;;;;;1990539;28;20253;-74
2022/05/12 02:27:14;;;;;;;3.73;2.03;;;19.20;91.40;;;;;;1990110;28;20198;-74
2022/05/12 02:28:13;;;;;;;3.10;1.87;;;19.10;91.40;;;;;;1990374;28;20173;-74
2022/05/12 02:29:11;;;;;;;2.07;1.30;;;19.10;91.50;;;;;;1990451;28;20174;-74
2022/05/12 02:30:24;;;;;;;3.67;1.90;;;19.10;91.70;;;;;;1990281;28;20775;-74
2022/05/12 02:31:23;;;;;;;1.97;1.33;;;19.20;92.00;;;;;;1990567;28;20213;-74
2022/05/12 02:32:22;;;;;;;3.00;1.87;;;19.10;92.00;;;;;;1990291;28;20430;-74
2022/05/12 02:33:23;;;;;;;2.20;1.33;;;19.10;91.90;;;;;;1990382;28;20390;-74
2022/05/12 02:34:23;;;;;;;4.95;1.70;;;19.10;92.00;;;;;;1990286;28;20595;-74
2022/05/12 02:35:22;;;;;;;4.20;1.40;;;19.10;92.10;;;;;;1997199;28;20245;-74
2022/05/12 02:36:21;;;;;;;4.13;1.75;;;19.10;92.40;;;;;;1997534;28;20799;-74
2022/05/12 02:37:21;;;;;;;2.57;1.30;;;19.10;92.20;;;;;;1990622;28;20175;-74
2022/05/12 02:38:20;;;;;;;4.20;1.90;;;19.10;91.80;;;;;;1989788;28;20434;-74
2022/05/12 02:39:18;;;;;;;4.23;1.40;;;19.10;91.80;;;;;;1989622;28;20414;-75
2022/05/12 02:40:20;;;;;;;3.27;1.20;;;19.10;91.60;;;;;;1997314;28;20170;-74
2022/05/12 02:41:19;;;;;;;9.87;1.27;;;19.10;91.70;;;;;;1990190;28;20171;-74
2022/05/12 02:42:19;;;;;;;5.67;1.90;;;19.20;91.90;;;;;;1990564;28;20408;-74
2022/05/12 02:43:24;;;;;;;1.92;1.40;;;19.10;91.80;;;;;;1990132;28;20720;-74
2022/05/12 02:44:24;;;;;;;1.60;1.00;;;19.10;91.80;;;;;;1990114;28;20266;-74
2022/05/12 02:45:23;;;;;;;3.60;1.43;;;19.10;92.10;;;;;;1990352;28;20221;-74
2022/05/12 02:46:22;;;;;;;6.35;1.30;;;19.10;92.40;;;;;;1989487;28;20418;-74
2022/05/12 02:47:21;;;;;;;4.50;1.70;;;19.10;92.40;;;;;;1989802;28;20231;-74
2022/05/12 02:48:23;;;;;;;3.20;1.33;;;19.10;92.80;;;;;;1990286;28;20175;-74
2022/05/12 02:49:23;;;;;;;3.28;1.13;;;19.10;92.80;;;;;;1989971;28;20179;-74
2022/05/12 02:50:22;;;;;;;2.03;1.35;;;19.20;93.00;;;;;;1990038;28;20179;-74
2022/05/12 02:51:20;;;;;;;2.20;1.43;;;19.10;93.30;;;;;;1990259;28;20201;-74
2022/05/12 02:52:19;;;;;;;4.07;1.60;;;19.10;93.30;;;;;;1990238;28;20171;-74
2022/05/12 02:53:17;;;;;;;5.17;1.30;;;19.10;93.50;;;;;;1990139;28;20167;-74
2022/05/12 02:54:18;;;;;;;6.03;1.97;;;19.10;94.40;;;;;;1990313;28;20189;-74
2022/05/12 02:55:17;;;;;;;6.03;1.47;;;19.10;94.70;;;;;;1990300;28;20198;-74
2022/05/12 02:56:15;;;;;;;4.10;1.20;;;19.10;92.30;;;;;;1990255;28;20401;-74
2022/05/12 02:57:16;;;;;;;3.67;1.47;;;19.10;92.60;;;;;;1989492;28;20209;-74
2022/05/12 02:58:15;;;;;;;6.97;1.43;;;19.10;93.50;;;;;;1989454;28;20171;-75
2022/05/12 02:59:13;;;;;;;3.10;1.33;;;19.10;92.80;;;;;;1990381;28;20416;-75
2022/05/12 03:00:16;;;;;;;2.90;1.30;;;19.10;89.30;;;;;;1990156;28;20179;-74
2022/05/12 03:01:16;;;;;;;4.35;1.30;;;19.10;89.40;;;;;;1990166;28;20182;-74
2022/05/12 03:02:15;;;;;;;3.93;1.50;;;19.10;89.60;;;;;;1990437;28;20177;-74
2022/05/12 03:03:15;;;;;;;6.77;1.60;;;19.10;89.60;;;;;;1990070;28;20410;-74
2022/05/12 03:04:16;;;;;;;3.17;1.40;;;19.10;90.10;;;;;;1990305;28;20464;-74
2022/05/12 03:05:15;;;;;;;2.92;1.42;;;19.10;90.40;;;;;;1997310;28;20421;-74
2022/05/12 03:06:13;;;;;;;2.90;1.43;;;19.10;90.90;;;;;;1989662;28;20249;-73
2022/05/12 03:07:13;;;;;;;1.60;1.30;;;19.10;91.60;;;;;;1989529;28;20194;-74
2022/05/12 03:08:13;;;;;;;1.83;1.20;;;19.10;91.80;;;;;;1990118;28;20518;-72
2022/05/12 03:09:12;;;;;;;2.17;1.20;;;19.10;91.80;;;;;;1990213;28;20885;-73
2022/05/12 03:10:12;;;;;;;2.13;1.15;;;19.10;91.80;;;;;;1989837;28;20642;-73
2022/05/12 03:11:11;;;;;;;3.17;1.30;;;19.10;92.00;;;;;;1990133;28;20206;-73
2022/05/12 03:12:09;;;;;;;2.40;1.40;;;19.10;92.10;;;;;;1990796;28;20201;-74
2022/05/12 03:13:09;;;;;;;2.60;1.73;;;19.00;92.00;;;;;;1992548;28;20167;-73
2022/05/12 03:14:10;;;;;;;11.52;1.40;;;19.10;92.30;;;;;;1992662;28;20162;-73
2022/05/12 03:15:12;;;;;;;5.10;0.95;;;19.00;92.30;;;;;;1992060;28;20182;-73
2022/05/12 03:16:11;;;;;;;7.67;1.60;;;19.10;92.00;;;;;;1994943;28;20210;-75
2022/05/12 03:17:10;;;;;;;1.77;0.90;;;19.00;91.90;;;;;;1998077;28;20445;-74
2022/05/12 03:18:10;;;;;;;6.10;2.00;;;19.10;92.00;;;;;;1998791;28;20220;-74
2022/05/12 03:19:11;;;;;;;4.22;1.23;;;19.00;92.00;;;;;;1998881;28;20167;-75
2022/05/12 03:20:14;;;;;;;2.55;0.93;;;19.00;92.10;;;;;;1991393;28;20163;-73
2022/05/12 03:21:17;;;;;;;2.10;1.10;;;19.00;92.20;;;;;;1991270;28;20259;-73
2022/05/12 03:22:15;;;;;;;2.92;1.05;;;19.00;92.30;;;;;;1990433;28;20163;-75
2022/05/12 03:23:14;;;;;;;2.70;1.17;;;19.00;92.30;;;;;;1990452;28;20617;-75
2022/05/12 03:24:17;;;;;;;2.20;1.10;;;19.00;92.20;;;;;;1990309;28;20672;-74
2022/05/12 03:25:21;;;;;;;3.23;1.53;;;19.00;92.50;;;;;;1997406;28;20178;-74
2022/05/12 03:26:20;;;;;;;1.60;1.15;;;19.00;92.40;;;;;;1997577;28;20975;-75
2022/05/12 03:27:18;;;;;;;2.40;1.20;;;19.00;92.40;;;;;;1990076;28;20222;-74
2022/05/12 03:28:18;;;;;;;1.30;1.10;;;19.00;92.30;;;;;;1989937;28;20530;-75
2022/05/12 03:29:16;;;;;;;4.00;1.00;;;19.00;92.20;;;;;;1990029;28;20175;-74
2022/05/12 03:30:18;;;;;;;4.40;1.70;;;19.00;92.30;;;;;;1989846;28;20406;-74
2022/05/12 03:31:18;;;;;;;1.58;0.98;;;19.00;92.20;;;;;;1989850;28;20318;-74
2022/05/12 03:32:16;;;;;;;2.13;1.10;;;19.00;92.10;;;;;;1989908;28;20167;-74
2022/05/12 03:33:15;;;;;;;2.87;0.90;;;19.00;91.90;;;;;;1989869;28;20174;-74
2022/05/12 03:34:14;;;;;;;6.23;1.50;;;19.00;91.80;;;;;;1989917;28;20175;-74
2022/05/12 03:35:14;;;;;;;3.15;1.40;;;19.20;91.70;;;;;;1989839;28;20166;-75
2022/05/12 03:36:15;;;;;;;4.57;1.63;;;19.00;91.50;;;;;;1996959;28;20174;-75
2022/05/12 03:37:13;;;;;;;1.87;1.10;;;19.00;91.40;;;;;;1996730;28;20421;-75
2022/05/12 03:38:12;;;;;;;2.87;1.23;;;19.00;91.40;;;;;;1990003;28;20402;-75
2022/05/12 03:39:11;;;;;;;8.20;1.57;;;19.10;91.50;;;;;;1989420;28;20246;-74
2022/05/12 03:40:11;;;;;;;2.43;1.47;;;19.00;91.50;;;;;;1989569;28;20181;-75
2022/05/12 03:41:11;;;;;;;2.10;1.00;;;19.00;91.50;;;;;;1989297;28;20198;-73
2022/05/12 03:42:12;;;;;;;1.53;1.20;;;19.00;91.60;;;;;;1989556;28;20273;-75
2022/05/12 03:43:10;;;;;;;2.10;1.60;;;19.00;91.40;;;;;;1989127;28;20508;-73
2022/05/12 03:45:27;;;;;;;1.30;0.90;;;19.10;91.50;;;;;;1989949;28;20158;-73
2022/05/12 03:46:28;;;;;;;2.27;0.87;;;19.00;91.60;;;;;;1989880;28;20761;-74
2022/05/12 03:47:29;;;;;;;4.00;1.30;;;19.00;91.50;;;;;;1990005;28;20768;-74
2022/05/12 03:48:28;;;;;;;4.60;1.13;;;19.00;91.50;;;;;;1989242;28;20220;-73
2022/05/12 03:49:28;;;;;;;3.73;0.83;;;19.00;91.50;;;;;;1989460;28;20413;-74
2022/05/12 03:50:28;;;;;;;3.10;1.27;;;19.00;91.60;;;;;;1990048;28;20417;-74
2022/05/12 03:51:27;;;;;;;3.30;1.03;;;19.00;91.60;;;;;;1989771;28;20901;-73
2022/05/12 03:52:26;;;;;;;1.10;0.90;;;19.00;91.50;;;;;;1989719;28;20434;-74
2022/05/12 03:53:25;;;;;;;3.03;1.20;;;19.00;91.60;;;;;;1989056;28;20638;-74
2022/05/12 03:54:23;;;;;;;4.10;1.67;;;19.00;91.60;;;;;;1989153;28;20221;-74
2022/05/12 03:55:26;;;;;;;5.80;1.53;;;19.00;91.70;;;;;;1996412;28;20444;-73
2022/05/12 03:56:26;;;;;;;1.80;1.60;;;19.00;91.80;;;;;;1989609;28;20170;-74
2022/05/12 03:57:29;;;;;;;1.37;0.87;;;19.00;91.90;;;;;;1989900;28;20417;-73
2022/05/12 03:58:27;;;;;;;1.60;1.07;;;19.00;91.90;;;;;;1989878;28;20413;-74
2022/05/12 03:59:26;;;;;;;2.30;1.10;;;19.00;91.90;;;;;;1989434;28;20436;-75
2022/05/12 04:00:29;;;;;;;3.00;1.83;;;19.00;91.90;;;;;;1989525;28;20185;-74
2022/05/12 04:01:29;;;;;;;1.30;1.20;;;19.00;91.90;;;;;;1989183;28;20187;-73
2022/05/12 04:02:29;;;;;;;2.00;1.80;;;19.00;91.80;;;;;;1989095;28;20639;-73
2022/05/12 04:03:27;;;;;;;2.67;0.80;;;19.00;92.00;;;;;;1989270;28;20186;-74
2022/05/12 04:04:26;;;;;;;1.73;1.00;;;19.00;92.00;;;;;;1989623;28;20185;-74
2022/05/12 04:05:27;;;;;;;1.80;1.20;;;19.00;92.00;;;;;;1989637;28;20230;-74
2022/05/12 04:06:26;;;;;;;4.28;1.02;;;19.00;92.10;;;;;;1996925;28;20170;-74
2022/05/12 04:07:25;;;;;;;2.27;1.10;;;19.00;92.10;;;;;;1989296;28;20209;-74
2022/05/12 04:08:25;;;;;;;2.63;1.00;;;19.00;92.20;;;;;;1989490;28;20414;-74
2022/05/12 04:09:25;;;;;;;3.70;1.13;;;19.00;92.30;;;;;;1989741;28;20402;-74
2022/05/12 04:10:24;;;;;;;2.08;1.08;;;19.00;92.20;;;;;;1989504;28;20447;-74
2022/05/12 04:11:23;;;;;;;9.30;1.33;;;19.00;92.20;;;;;;1989800;28;20225;-74
2022/05/12 04:12:22;;;;;;;2.17;1.20;;;19.00;92.20;;;;;;1989651;28;20534;-74
2022/05/12 04:13:23;;;;;;;8.33;1.40;;;19.00;92.30;;;;;;1989049;28;20458;-74
2022/05/12 04:14:22;;;;;;;1.50;1.00;;;19.00;92.40;;;;;;1988876;28;20186;-74
2022/05/12 04:15:22;;;;;;;2.70;1.33;;;19.00;92.50;;;;;;1988986;28;20166;-74
2022/05/12 04:16:20;;;;;;;8.30;1.10;;;19.00;92.60;;;;;;1989867;28;20166;-74
2022/05/12 04:17:19;;;;;;;4.17;0.97;;;19.00;92.60;;;;;;1989689;28;20401;-74
2022/05/12 04:18:18;;;;;;;1.30;1.20;;;19.00;92.50;;;;;;1989628;28;20545;-74
2022/05/12 04:19:17;;;;;;;2.10;1.10;;;19.00;92.60;;;;;;1989476;28;20501;-74
2022/05/12 04:20:15;;;;;;;3.67;1.90;;;19.00;92.70;;;;;;1989339;28;20170;-74
2022/05/12 04:21:18;;;;;;;2.53;0.97;;;19.00;92.90;;;;;;1989792;28;20258;-74
2022/05/12 04:22:17;;;;;;;4.00;0.90;;;19.00;93.00;;;;;;1988858;28;20276;-74
2022/05/12 04:23:15;;;;;;;1.50;1.03;;;19.00;93.10;;;;;;1989063;28;20421;-74
2022/05/12 04:24:14;;;;;;;3.53;1.40;;;19.00;93.10;;;;;;1996266;28;20254;-74
2022/05/12 04:25:12;;;;;;;5.13;0.97;;;19.00;93.30;;;;;;1990186;28;20221;-74
2022/05/12 04:26:11;;;;;;;1.93;0.80;;;19.00;93.60;;;;;;1989768;28;20182;-74
2022/05/12 04:27:12;;;;;;;4.20;0.93;;;19.00;93.70;;;;;;1988734;28;20206;-74
2022/05/12 04:28:11;;;;;;;1.87;1.17;;;19.00;94.20;;;;;;1989021;28;20185;-74
2022/05/12 04:29:11;;;;;;;1.10;0.93;;;;;;;;;;1996673;28;20411;-74
2022/05/12 04:30:13;;;;;;;1.93;1.30;;;18.90;91.10;;;;;;1988689;28;20414;-74
2022/05/12 04:31:11;;;;;;;1.00;0.90;;;19.00;91.00;;;;;;1989027;28;20544;-73
2022/05/12 04:32:11;;;;;;;3.07;1.63;;;19.00;91.10;;;;;;1996597;28;20411;-74
2022/05/12 04:36:03;;;;;;;2.28;1.30;;;19.00;91.00;;;;;;1981221;29;20241;-74
2022/05/12 04:37:03;;;;;;;2.50;1.30;;;19.00;91.10;;;;;;1980987;29;20234;-75
2022/05/12 04:38:02;;;;;;;2.90;1.20;;;19.00;91.50;;;;;;1980453;29;20457;-74
2022/05/12 04:39:03;;;;;;;2.80;1.20;;;19.00;91.90;;;;;;1989721;28;20185;-74
2022/05/12 04:40:29;;;;;;;1.92;1.10;;;19.00;91.50;;;;;;1990228;28;20496;-73
2022/05/12 04:41:50;;;;;;;2.83;1.20;;;19.00;91.50;;;;;;1989713;28;20198;-73
2022/05/12 04:42:52;;;;;;;2.30;1.10;;;19.00;91.60;;;;;;1997436;28;20959;-75
2022/05/12 04:43:52;;;;;;;3.33;1.27;;;18.90;91.90;;;;;;1996571;28;20412;-75
2022/05/12 04:44:50;;;;;;;1.83;1.10;;;19.00;92.20;;;;;;1989831;28;20847;-74
2022/05/12 04:45:50;;;;;;;2.60;1.10;;;19.00;91.90;;;;;;1989900;28;20197;-74
2022/05/12 04:46:51;;;;;;;2.80;1.30;;;19.00;92.00;;;;;;1989528;28;20293;-74
2022/05/12 04:47:50;;;;;;;1.80;1.37;;;19.00;91.90;;;;;;1989582;28;20189;-74
2022/05/12 04:48:48;;;;;;;2.63;1.33;;;19.00;92.90;;;;;;1989629;28;20414;-73
2022/05/12 04:49:47;;;;;;;4.20;1.33;;;18.90;92.30;;;;;;1988967;28;20438;-74
2022/05/12 04:50:45;;;;;;;2.87;1.60;;;19.60;91.90;;;;;;1989003;28;20194;-74
2022/05/12 04:51:44;;;;;;;3.73;2.27;;;18.80;91.30;;;;;;1989489;28;20171;-74
2022/05/12 04:52:44;;;;;;;11.60;1.47;;;19.00;91.40;;;;;;1989440;28;20210;-74
2022/05/12 04:53:43;;;;;;;4.50;1.17;;;19.00;91.20;;;;;;1989491;28;20170;-74
2022/05/12 04:54:41;;;;;;;1.70;1.30;;;19.00;91.00;;;;;;1989415;28;20413;-74
2022/05/12 04:55:40;;;;;;;3.40;1.60;;;19.00;91.50;;;;;;1988574;28;20178;-74
2022/05/12 04:56:41;;;;;;;4.13;1.50;;;19.00;92.00;;;;;;1988860;28;20213;-74
2022/05/12 04:57:43;;;;;;;1.93;1.00;;;19.00;91.30;;;;;;1989376;28;20410;-74
2022/05/12 04:58:41;;;;;;;4.32;1.10;;;19.00;88.70;;;;;;1989234;28;20434;-75
2022/05/12 04:59:40;;;;;;;4.10;1.50;;;19.00;88.60;;;;;;1988684;28;20188;-75
2022/05/12 05:00:41;;;;;;;1.30;1.17;;;19.00;88.50;;;;;;1989473;28;20183;-74
2022/05/12 05:01:40;;;;;;;6.73;1.63;;;19.00;88.30;;;;;;1991792;28;20189;-74
2022/05/12 05:02:38;;;;;;;1.60;1.00;;;19.00;88.20;;;;;;1989045;28;20409;-74
2022/05/12 05:03:36;;;;;;;1.80;1.30;;;19.00;88.20;;;;;;1989014;28;20365;-74
2022/05/12 05:04:35;;;;;;;2.70;1.40;;;19.00;88.20;;;;;;1989285;28;20210;-74
2022/05/12 05:05:34;;;;;;;6.20;1.20;;;19.00;88.20;;;;;;1989430;28;20226;-74
2022/05/12 05:06:34;;;;;;;5.13;2.00;;;19.00;88.20;;;;;;1989286;28;20188;-75
2022/05/12 05:07:33;;;;;;;2.00;1.50;;;19.00;88.20;;;;;;1988564;28;20673;-74
2022/05/12 05:08:32;;;;;;;1.70;1.10;;;19.00;88.20;;;;;;1988824;28;20407;-74
2022/05/12 05:09:31;;;;;;;1.90;1.10;;;19.00;88.20;;;;;;1989118;28;20770;-75
2022/05/12 05:10:32;;;;;;;1.70;1.10;;;18.90;88.10;;;;;;1989180;28;20170;-75
2022/05/12 05:11:30;;;;;;;2.90;1.00;;;19.00;88.20;;;;;;1989034;28;20190;-74
2022/05/12 05:12:29;;;;;;;3.87;1.57;;;19.00;88.10;;;;;;1989281;28;20410;-74
2022/05/12 05:13:28;;;;;;;4.67;0.97;;;19.00;88.20;;;;;;1989191;28;20290;-74
2022/05/12 05:14:27;;;;;;;5.53;1.73;;;19.00;88.20;;;;;;1989461;28;20417;-74
2022/05/12 05:15:26;;;;;;;5.60;1.10;;;19.00;88.10;;;;;;1988752;28;20269;-74
2022/05/12 05:16:25;;;;;;;3.27;1.30;;;19.00;88.00;;;;;;1980904;29;20430;-74
2022/05/12 05:17:27;;;;;;;1.20;1.00;;;19.00;88.10;;;;;;1988120;28;20485;-74
2022/05/12 05:18:27;;;;;;;1.73;1.20;;;19.00;88.10;;;;;;1988769;28;20237;-73